Todos
Tartu Airport (Tartu) TAY Condições meteorológicas
|
Tartu (TAY / EETU)
Céu Limpo
Vento Ligeiro |
|
13 °C |
TAY Previsão da área de terminais
| Date | Time (EEST) | Flight Rules | Wind Dir. | Speed | Type | Height AGL (ft) | Visibility | Remarks | ||||||
|---|---|---|---|---|---|---|---|---|---|---|---|---|---|---|
Histórico recente de METAR TAY
| Date | Time (EEST) | Flight Rules | Wind Dir. | Speed | Type | Height AGL (ft) | Visibility | Temp (°C) | Temp (°F) | Dew Point (°C) | Dew Point (°F) | Rel. Humid. | Pressure | Density Altitude | Remarks |
|---|---|---|---|---|---|---|---|---|---|---|---|---|---|---|---|
| 03-Mai | 00:50 | VFR | 230° | 9 kt | 10000 meters | 13° | 55° | 3° | 37° | 51% | 1011 mb | 44 ft | |||
| 03-Mai | 00:20 | VFR | 230° | 9 kt | 10000 meters | 13° | 55° | 3° | 37° | 51% | 1011 mb | 44 ft | |||
| 02-Mai | 23:50 | VFR | 230° | 8 kt | 10000 meters | 13° | 55° | 2° | 35° | 47% | 1011 mb | 44 ft | |||
| 02-Mai | 23:20 | VFR | 240° | 9 kt | 10000 meters | 13° | 55° | 2° | 35° | 47% | 1012 mb | 15 ft | |||
| 02-Mai | 22:50 | VFR | 240° | 9 kt | 10000 meters | 13° | 55° | 2° | 35° | 47% | 1012 mb | 15 ft | |||
| 02-Mai | 22:20 | VFR | 250° | 8 kt | 10000 meters | 13° | 55° | 3° | 37° | 51% | 1012 mb | 15 ft | |||
| 02-Mai | 21:50 | VFR | 250° | 11 kt | 10000 meters | 14° | 57° | 2° | 35° | 44% | 1012 mb | 135 ft | |||
| 02-Mai | 21:20 | VFR | 250° | 12 kt | 10000 meters | 15° | 59° | 3° | 37° | 44% | 1012 mb | 255 ft | |||
| 02-Mai | 20:50 | VFR | 260° | 13 kt | 10000 meters | 16° | 60° | 3° | 37° | 42% | 1012 mb | 375 ft | |||
| 02-Mai | 20:20 | VFR | 260° | 14 kt | 10000 meters | 17° | 62° | 3° | 37° | 39% | 1012 mb | 495 ft | |||
| 02-Mai | 19:50 | VFR | 260° | 15 kt | 10000 meters | 18° | 64° | 3° | 37° | 37% | 1012 mb | 615 ft | |||
| 02-Mai | 19:20 | VFR | 260° | 17 kt | 10000 meters | 19° | 66° | 1° | 33° | 30% | 1012 mb | 735 ft | |||
| 02-Mai | 18:50 | VFR | 260° | 19 kt | 10000 meters | 19° | 66° | 1° | 33° | 30% | 1012 mb | 735 ft | |||
| 02-Mai | 18:20 | VFR | 260° | 18 kt | 10000 meters | 20° | 68° | 0° | 32° | 26% | 1013 mb | 825 ft | |||
| 02-Mai | 17:50 | VFR | 270° | 19 kt | 10000 meters | 20° | 68° | 1° | 33° | 28% | 1012 mb | 855 ft | Wind gusting to 29 KT | ||
| 02-Mai | 17:20 | VFR | 250° | 19 kt | 10000 meters | 21° | 69° | 1° | 33° | 26% | 1012 mb | 975 ft | |||
| 02-Mai | 16:50 | VFR | 260° | 19 kt | 10000 meters | 21° | 69° | 1° | 33° | 26% | 1012 mb | 975 ft | |||
| 02-Mai | 16:20 | VFR | 250° | 20 kt | 10000 meters | 21° | 69° | 2° | 35° | 28% | 1012 mb | 975 ft | |||
| 02-Mai | 15:50 | VFR | 260° | 18 kt | 10000 meters | 21° | 69° | 3° | 37° | 30% | 1013 mb | 945 ft | |||
| 02-Mai | 15:20 | VFR | 250° | 19 kt | 10000 meters | 21° | 69° | 4° | 39° | 33% | 1013 mb | 945 ft | |||
| 02-Mai | 14:50 | VFR | 250° | 17 kt | 10000 meters | 21° | 69° | 4° | 39° | 33% | 1013 mb | 945 ft | |||
| 02-Mai | 14:20 | VFR | 260° | 19 kt | 10000 meters | 21° | 69° | 3° | 37° | 30% | 1013 mb | 945 ft | |||
| 02-Mai | 13:50 | VFR | 270° | 17 kt | 10000 meters | 21° | 69° | 3° | 37° | 30% | 1013 mb | 945 ft | |||
| 02-Mai | 13:20 | VFR | 260° | 14 kt | 10000 meters | 20° | 68° | 4° | 39° | 35% | 1013 mb | 825 ft |
Entrar
| Seu navegador não suporta. atualize seu navegador |
